createdAt,value
2022-08-28T00:02:04.647Z,98635.06
2022-08-28T00:04:32.152Z,98630.34
2022-08-28T00:06:59.732Z,98629.88
2022-08-28T00:09:27.190Z,98626.00
2022-08-28T00:11:55.331Z,98634.16
2022-08-28T00:14:24.425Z,98638.47
2022-08-28T00:16:52.567Z,98635.78
2022-08-28T00:19:20.616Z,98632.69
2022-08-28T00:21:48.208Z,98626.81
2022-08-28T00:24:15.719Z,98619.81
2022-08-28T00:27:02.217Z,98625.69
2022-08-28T00:29:30.649Z,98621.75
2022-08-28T00:31:58.480Z,98625.34
2022-08-28T00:34:33.483Z,98626.09
2022-08-28T00:37:01.916Z,98624.91
2022-08-28T00:39:29.366Z,98625.28
2022-08-28T00:41:58.006Z,98626.09
2022-08-28T00:44:28.414Z,98626.81
2022-08-28T00:46:58.010Z,98628.41
2022-08-28T00:49:32.955Z,98622.88
2022-08-28T00:52:16.259Z,98624.13
2022-08-28T00:54:58.899Z,98632.78
2022-08-28T00:57:37.946Z,98624.84
2022-08-28T01:00:16.756Z,98623.69
2022-08-28T01:02:44.357Z,98612.41
2022-08-28T01:05:13.869Z,98622.66
2022-08-28T01:07:42.241Z,98621.09
2022-08-28T01:10:14.483Z,98622.31
2022-08-28T01:12:42.776Z,98619.56
2022-08-28T01:15:14.077Z,98630.44
2022-08-28T01:17:46.759Z,98625.72
2022-08-28T01:20:18.366Z,98628.47
2022-08-28T01:22:59.459Z,98631.97
2022-08-28T01:25:30.937Z,98629.72
2022-08-28T01:27:58.798Z,98628.84
2022-08-28T01:30:26.718Z,98624.13
2022-08-28T01:32:56.129Z,98627.53
2022-08-28T01:35:32.022Z,98627.44
2022-08-28T01:38:00.300Z,98617.31
2022-08-28T01:40:36.757Z,98617.66
2022-08-28T01:43:19.515Z,98622.66
2022-08-28T01:45:53.193Z,98629.34
2022-08-28T01:48:23.307Z,98632.44
2022-08-28T01:50:51.050Z,98629.69
2022-08-28T01:53:24.870Z,98628.41
2022-08-28T01:55:54.993Z,98632.63
2022-08-28T01:58:23.512Z,98634.53
2022-08-28T02:00:53.931Z,98623.19
2022-08-28T02:03:23.867Z,98623.44
2022-08-28T02:05:52.504Z,98621.03
2022-08-28T02:08:20.864Z,98621.72
2022-08-28T02:10:49.448Z,98622.03
2022-08-28T02:13:17.111Z,98615.28
2022-08-28T02:15:46.174Z,98603.91
2022-08-28T02:18:14.751Z,98615.41
2022-08-28T02:20:43.216Z,98606.25
2022-08-28T02:23:11.260Z,98624.09
2022-08-28T02:25:39.704Z,98612.16
2022-08-28T02:28:07.383Z,98616.59
2022-08-28T02:30:36.010Z,98625.78
2022-08-28T02:33:04.247Z,98620.78
2022-08-28T02:35:32.026Z,98615.59
2022-08-28T02:38:00.463Z,98614.25
2022-08-28T02:40:28.450Z,98612.47
2022-08-28T02:42:56.046Z,98606.25
2022-08-28T02:45:23.611Z,98606.22
2022-08-28T02:47:53.415Z,98614.75
2022-08-28T02:50:22.125Z,98614.72
2022-08-28T02:52:49.679Z,98613.19
2022-08-28T02:55:19.169Z,98620.78
2022-08-28T02:57:48.764Z,98615.72
2022-08-28T03:00:21.568Z,98625.28
2022-08-28T03:02:50.348Z,98619.59
2022-08-28T03:05:21.323Z,98614.91
2022-08-28T03:07:50.666Z,98619.53
2022-08-28T03:10:18.604Z,98610.09
2022-08-28T03:12:46.449Z,98616.38
2022-08-28T03:15:14.402Z,98618.47
2022-08-28T03:17:41.989Z,98607.28
2022-08-28T03:20:10.892Z,98616.22
2022-08-28T03:22:57.353Z,98613.13
2022-08-28T03:25:25.918Z,98613.66
2022-08-28T03:27:53.944Z,98613.69
2022-08-28T03:30:22.274Z,98625.06
2022-08-28T03:32:50.187Z,98624.47
2022-08-28T03:35:17.803Z,98613.19
2022-08-28T03:37:45.190Z,98611.47
2022-08-28T03:40:14.046Z,98624.06
2022-08-28T03:42:41.531Z,98605.34
2022-08-28T03:45:11.068Z,98614.53
2022-08-28T03:47:40.670Z,98615.84
2022-08-28T03:50:11.733Z,98610.69
2022-08-28T03:52:41.422Z,98610.78
2022-08-28T03:55:11.033Z,98604.97
2022-08-28T03:57:39.420Z,98613.16
2022-08-28T04:00:10.374Z,98610.28
2022-08-28T04:02:42.411Z,98616.13
2022-08-28T04:05:11.345Z,98610.09
2022-08-28T04:07:40.391Z,98616.31
2022-08-28T04:10:08.531Z,98616.19
2022-08-28T04:12:37.217Z,98611.84
2022-08-28T04:15:06.998Z,98606.25
2022-08-28T04:17:35.334Z,98602.31
2022-08-28T04:20:02.968Z,98599.53
2022-08-28T04:22:30.928Z,98606.75
2022-08-28T04:24:58.416Z,98607.19
2022-08-28T04:27:25.796Z,98609.34
2022-08-28T04:29:53.360Z,98611.09
2022-08-28T04:32:22.163Z,98614.84
2022-08-28T04:34:50.369Z,98613.28
2022-08-28T04:37:18.710Z,98614.50
2022-08-28T04:39:46.379Z,98609.06
2022-08-28T04:42:14.720Z,98612.88
2022-08-28T04:44:42.599Z,98610.47
2022-08-28T04:47:10.463Z,98613.13
2022-08-28T04:49:38.026Z,98607.53
2022-08-28T04:52:05.668Z,98611.22
2022-08-28T04:54:34.809Z,98619.69
2022-08-28T04:57:03.129Z,98618.19
2022-08-28T04:59:34.603Z,98607.41
2022-08-28T05:02:02.658Z,98612.44
2022-08-28T05:04:30.219Z,98606.00
2022-08-28T05:06:57.727Z,98605.31
2022-08-28T05:09:25.364Z,98608.09
2022-08-28T05:11:53.693Z,98603.97
2022-08-28T05:14:22.092Z,98601.75
2022-08-28T05:16:53.260Z,98611.00
2022-08-28T05:19:21.603Z,98600.84
2022-08-28T05:21:49.289Z,98604.06
2022-08-28T05:24:17.115Z,98607.59
2022-08-28T05:26:48.172Z,98609.00
2022-08-28T05:29:17.085Z,98603.97
2022-08-28T05:31:44.648Z,98606.13
2022-08-28T05:34:14.288Z,98609.94
2022-08-28T05:36:42.357Z,98609.50
2022-08-28T05:39:11.953Z,98611.84
2022-08-28T05:41:42.546Z,98620.97
2022-08-28T05:44:13.897Z,98608.19
2022-08-28T05:46:43.952Z,98598.97
2022-08-28T05:49:12.658Z,98598.47
2022-08-28T05:51:42.239Z,98610.00
2022-08-28T05:54:10.686Z,98603.38
2022-08-28T05:56:40.731Z,98599.72
2022-08-28T05:59:09.818Z,98596.41
2022-08-28T06:01:41.705Z,98601.13
2022-08-28T06:04:12.733Z,98598.00
2022-08-28T06:06:41.594Z,98602.88
2022-08-28T06:09:29.756Z,98594.50
2022-08-28T06:12:01.908Z,98589.59
2022-08-28T06:14:30.724Z,98596.91
2022-08-28T06:16:59.204Z,98590.84
2022-08-28T06:19:29.386Z,98597.56
2022-08-28T06:21:59.984Z,98586.22
2022-08-28T06:24:29.196Z,98591.19
2022-08-28T06:26:58.185Z,98586.94
2022-08-28T06:29:28.060Z,98575.63
2022-08-28T06:31:58.589Z,98587.41
2022-08-28T06:34:27.054Z,98582.13
2022-08-28T06:36:54.903Z,98581.72
2022-08-28T06:39:23.141Z,98568.44
2022-08-28T06:41:50.891Z,98567.25
2022-08-28T06:44:20.748Z,98576.47
2022-08-28T06:46:51.122Z,98577.53
2022-08-28T06:49:18.743Z,98574.69
2022-08-28T06:51:46.470Z,98563.88
2022-08-28T06:54:19.789Z,98560.59
2022-08-28T06:56:50.792Z,98565.88
2022-08-28T06:59:18.382Z,98564.22
2022-08-28T07:01:46.000Z,98561.50
2022-08-28T07:04:16.567Z,98573.69
2022-08-28T07:06:54.814Z,98567.97
2022-08-28T07:09:23.953Z,98568.44
2022-08-28T07:11:51.641Z,98567.22
2022-08-28T07:14:19.248Z,98553.84
2022-08-28T07:16:46.796Z,98562.41
2022-08-28T07:19:16.698Z,98557.91
2022-08-28T07:21:45.750Z,98553.66
2022-08-28T07:24:14.980Z,98561.25
2022-08-28T07:26:43.959Z,98556.22
2022-08-28T07:29:12.631Z,98549.50
2022-08-28T07:31:44.232Z,98566.88
2022-08-28T07:34:13.896Z,98545.50
2022-08-28T07:36:42.471Z,98549.31
2022-08-28T07:39:12.425Z,98549.13
2022-08-28T07:41:43.005Z,98550.19
2022-08-28T07:44:31.540Z,98549.06
2022-08-28T07:47:04.486Z,98546.69
2022-08-28T07:49:34.510Z,98541.66
2022-08-28T07:52:02.729Z,98540.72
2022-08-28T07:54:30.247Z,98527.41
2022-08-28T07:56:57.779Z,98522.28
2022-08-28T07:59:25.298Z,98533.75
2022-08-28T08:01:53.856Z,98538.38
2022-08-28T08:04:23.715Z,98545.84
2022-08-28T08:06:57.543Z,98542.66
2022-08-28T08:09:26.338Z,98534.91
2022-08-28T08:11:55.276Z,98531.44
2022-08-28T08:14:23.284Z,98523.34
2022-08-28T08:16:51.951Z,98528.28
2022-08-28T08:19:20.590Z,98526.97
2022-08-28T08:21:53.085Z,98536.34
2022-08-28T08:24:26.703Z,98534.31
2022-08-28T08:26:59.835Z,98530.72
2022-08-28T08:29:31.900Z,98530.94
2022-08-28T08:32:06.104Z,98535.84
2022-08-28T08:34:37.598Z,98529.97
2022-08-28T08:37:06.022Z,98523.88
2022-08-28T08:39:35.259Z,98529.66
2022-08-28T08:42:07.285Z,98518.56
2022-08-28T08:44:39.307Z,98520.91
2022-08-28T08:47:17.170Z,98528.34
2022-08-28T08:49:57.480Z,98528.75
2022-08-28T08:52:49.241Z,98525.25
2022-08-28T08:55:24.704Z,98517.78
2022-08-28T08:58:17.783Z,98515.19
2022-08-28T09:00:58.734Z,98518.78
2022-08-28T09:03:48.266Z,98513.06
2022-08-28T09:06:43.998Z,98508.84
2022-08-28T09:09:32.597Z,98515.16
2022-08-28T09:12:04.098Z,98511.03
2022-08-28T09:14:53.134Z,98514.41
2022-08-28T09:17:24.587Z,98509.44
2022-08-28T09:19:52.046Z,98506.00
2022-08-28T09:22:19.590Z,98502.22
2022-08-28T09:24:47.872Z,98498.44
2022-08-28T09:27:28.626Z,98512.72
2022-08-28T09:30:07.472Z,98502.28
2022-08-28T09:32:44.890Z,98490.28
2022-08-28T09:35:25.806Z,98498.44
2022-08-28T09:37:53.410Z,98488.47
2022-08-28T09:40:23.732Z,98497.09
2022-08-28T09:43:28.616Z,98496.38
2022-08-28T09:46:22.484Z,98501.66
2022-08-28T09:48:53.955Z,98494.19
2022-08-28T09:51:21.413Z,98491.06
2022-08-28T09:53:52.071Z,98496.66
2022-08-28T09:56:32.679Z,98490.47
2022-08-28T09:59:02.963Z,98489.50
2022-08-28T10:01:51.636Z,98480.06
2022-08-28T10:04:24.925Z,98485.53
2022-08-28T10:07:13.381Z,98482.09
2022-08-28T10:09:52.702Z,98481.41
2022-08-28T10:12:50.620Z,98477.31
2022-08-28T10:15:26.595Z,98468.34
2022-08-28T10:18:31.782Z,98476.81
2022-08-28T10:21:14.447Z,98465.09
2022-08-28T10:24:07.615Z,98476.13
2022-08-28T10:26:43.133Z,98465.81
2022-08-28T10:29:27.558Z,98473.97
2022-08-28T10:32:14.700Z,98456.81
2022-08-28T10:35:03.599Z,98457.44
2022-08-28T10:37:52.983Z,98463.31
2022-08-28T10:40:35.391Z,98462.69
2022-08-28T10:43:11.435Z,98455.94
2022-08-28T10:45:40.010Z,98457.91
2022-08-28T10:48:24.405Z,98474.66
2022-08-28T10:50:57.234Z,98467.38
2022-08-28T10:53:52.621Z,98451.41
2022-08-28T10:56:30.901Z,98452.56
2022-08-28T10:58:59.816Z,98450.25
2022-08-28T11:01:38.812Z,98451.47
2022-08-28T11:04:14.689Z,98453.22
2022-08-28T11:06:50.717Z,98454.28
2022-08-28T11:09:31.482Z,98451.56
2022-08-28T11:12:09.932Z,98447.75
2022-08-28T11:14:48.024Z,98444.97
2022-08-28T11:17:22.369Z,98449.56
2022-08-28T11:19:57.177Z,98449.22
2022-08-28T11:22:30.124Z,98450.28
2022-08-28T11:25:13.342Z,98447.19
2022-08-28T11:28:01.637Z,98441.72
2022-08-28T11:30:33.794Z,98441.13
2022-08-28T11:33:04.735Z,98445.28
2022-08-28T11:35:46.566Z,98442.09
2022-08-28T11:38:42.616Z,98437.19
2022-08-28T11:41:15.042Z,98438.06
2022-08-28T11:43:51.731Z,98440.38
2022-08-28T11:46:31.865Z,98431.25
2022-08-28T11:49:01.790Z,98421.59
2022-08-28T11:52:07.749Z,98429.81
2022-08-28T11:55:22.641Z,98424.16
2022-08-28T12:01:01.807Z,98417.69
2022-08-28T12:03:38.119Z,98420.94
2022-08-28T12:06:07.211Z,98413.63
2022-08-28T12:08:51.653Z,98417.41
2022-08-28T12:11:40.849Z,98418.00
2022-08-28T12:14:09.402Z,98408.25
2022-08-28T12:17:01.479Z,98417.88
2022-08-28T12:19:36.874Z,98418.09
2022-08-28T12:22:13.721Z,98416.53
2022-08-28T12:24:50.814Z,98402.72
2022-08-28T12:27:18.945Z,98396.91
2022-08-28T12:29:50.921Z,98406.13
2022-08-28T12:32:21.372Z,98390.91
2022-08-28T12:34:58.003Z,98401.94
2022-08-28T12:37:52.551Z,98399.41
2022-08-28T12:40:53.691Z,98393.50
2022-08-28T12:43:46.788Z,98383.94
2022-08-28T12:46:38.507Z,98376.91
2022-08-28T12:49:27.603Z,98389.09
2022-08-28T12:52:18.255Z,98385.13
2022-08-28T12:54:47.051Z,98382.66
2022-08-28T12:57:18.111Z,98386.97
2022-08-28T12:59:51.294Z,98380.94
2022-08-28T13:02:18.653Z,98383.53
2022-08-28T13:05:20.555Z,98377.47
2022-08-28T13:07:51.675Z,98383.31
2022-08-28T13:10:30.086Z,98375.88
2022-08-28T13:13:05.470Z,98373.41
2022-08-28T13:16:01.727Z,98371.53
2022-08-28T13:18:51.684Z,98379.13
2022-08-28T13:21:34.060Z,98363.28
2022-08-28T13:24:22.345Z,98374.50
2022-08-28T13:27:00.980Z,98367.59
2022-08-28T13:29:28.870Z,98362.75
2022-08-28T13:32:05.522Z,98367.00
2022-08-28T13:34:36.292Z,98370.31
2022-08-28T13:37:14.645Z,98353.50
2022-08-28T13:39:47.971Z,98362.66
2022-08-28T13:42:18.182Z,98365.72
2022-08-28T13:44:53.478Z,98357.97
2022-08-28T13:47:21.057Z,98354.09
2022-08-28T13:49:48.642Z,98351.94
2022-08-28T13:52:16.385Z,98357.09
2022-08-28T13:54:45.514Z,98357.09
2022-08-28T13:57:14.104Z,98355.22
2022-08-28T13:59:42.176Z,98348.78
2022-08-28T14:02:32.738Z,98349.66
2022-08-28T14:05:01.142Z,98347.44
2022-08-28T14:07:30.674Z,98341.44
2022-08-28T14:09:58.686Z,98346.84
2022-08-28T14:12:31.427Z,98336.06
2022-08-28T14:15:01.962Z,98342.09
2022-08-28T14:17:31.977Z,98335.75
2022-08-28T14:20:00.584Z,98335.94
2022-08-28T14:22:28.801Z,98340.09
2022-08-28T14:24:56.271Z,98338.56
2022-08-28T14:27:23.758Z,98335.94
2022-08-28T14:29:51.289Z,98331.53
2022-08-28T14:32:18.947Z,98327.34
2022-08-28T14:34:47.886Z,98339.53
2022-08-28T14:37:15.895Z,98332.47
2022-08-28T14:39:43.809Z,98337.88
2022-08-28T14:42:13.023Z,98338.47
2022-08-28T14:44:40.966Z,98330.03
2022-08-28T14:47:09.001Z,98334.34
2022-08-28T14:49:36.596Z,98334.16
2022-08-28T14:52:04.883Z,98329.22
2022-08-28T14:54:32.441Z,98340.50
2022-08-28T14:57:00.024Z,98334.81
2022-08-28T14:59:29.492Z,98348.31
2022-08-28T15:02:00.337Z,98338.19
2022-08-28T15:04:34.841Z,98337.56
2022-08-28T15:07:06.848Z,98336.34
2022-08-28T15:09:39.957Z,98341.13
2022-08-28T15:12:07.654Z,98335.56
2022-08-28T15:14:36.299Z,98333.41
2022-08-28T15:17:04.352Z,98334.00
2022-08-28T15:19:31.981Z,98330.16
2022-08-28T15:22:00.092Z,98335.94
2022-08-28T15:24:31.766Z,98334.88
2022-08-28T15:26:59.966Z,98333.16
2022-08-28T15:29:30.147Z,98338.53
2022-08-28T15:31:58.698Z,98335.91
2022-08-28T15:34:28.700Z,98344.19
2022-08-28T15:36:57.817Z,98336.66
2022-08-28T15:39:46.368Z,98337.09
2022-08-28T15:42:14.612Z,98343.69
2022-08-28T15:44:42.616Z,98335.97
2022-08-28T15:47:10.654Z,98338.25
2022-08-28T15:49:48.616Z,98333.66
2022-08-28T15:52:19.023Z,98337.31
2022-08-28T15:54:47.430Z,98325.16
2022-08-28T15:57:17.022Z,98331.47
2022-08-28T15:59:49.532Z,98340.34
2022-08-28T16:02:24.558Z,98341.03
2022-08-28T16:04:53.647Z,98345.25
2022-08-28T16:07:22.776Z,98359.19
2022-08-28T16:09:50.926Z,98351.94
2022-08-28T16:12:18.666Z,98352.50
2022-08-28T16:14:46.262Z,98350.16
2022-08-28T16:17:13.923Z,98356.44
2022-08-28T16:19:42.462Z,98352.28
2022-08-28T16:22:12.758Z,98350.44
2022-08-28T16:24:40.389Z,98349.31
2022-08-28T16:27:13.124Z,98352.22
2022-08-28T16:29:43.475Z,98351.44
2022-08-28T16:32:11.704Z,98342.06
2022-08-28T16:34:40.238Z,98342.31
2022-08-28T16:37:08.224Z,98347.72
2022-08-28T16:39:37.060Z,98351.25
2022-08-28T16:42:04.907Z,98340.88
2022-08-28T16:44:32.462Z,98336.28
2022-08-28T16:47:00.695Z,98337.19
2022-08-28T16:49:28.311Z,98341.16
2022-08-28T16:51:55.860Z,98329.91
2022-08-28T16:54:23.910Z,98336.03
2022-08-28T16:56:51.548Z,98335.47
2022-08-28T16:59:23.260Z,98331.50
2022-08-28T17:01:53.074Z,98332.25
2022-08-28T17:04:22.390Z,98340.22
2022-08-28T17:06:50.378Z,98332.50
2022-08-28T17:09:21.150Z,98330.66
2022-08-28T17:11:52.059Z,98332.94
2022-08-28T17:14:21.379Z,98322.47
2022-08-28T17:16:49.124Z,98329.66
2022-08-28T17:19:16.705Z,98324.72
2022-08-28T17:22:02.541Z,98326.84
2022-08-28T17:24:31.356Z,98336.22
2022-08-28T17:27:03.249Z,98329.38
2022-08-28T17:29:36.630Z,98337.78
2022-08-28T17:32:05.544Z,98336.81
2022-08-28T17:34:33.023Z,98324.34
2022-08-28T17:37:00.610Z,98332.28
2022-08-28T17:39:28.371Z,98335.50
2022-08-28T17:41:55.969Z,98335.59
2022-08-28T17:44:23.834Z,98335.75
2022-08-28T17:46:53.966Z,98332.19
2022-08-28T17:49:22.729Z,98329.44
2022-08-28T17:51:51.384Z,98325.59
2022-08-28T17:54:21.979Z,98335.41
2022-08-28T17:56:52.421Z,98332.63
2022-08-28T17:59:20.744Z,98336.09
2022-08-28T18:01:48.742Z,98340.84
2022-08-28T18:04:23.277Z,98341.16
2022-08-28T18:06:54.843Z,98332.22
2022-08-28T18:09:23.806Z,98340.50
2022-08-28T18:11:52.585Z,98339.38
2022-08-28T18:14:20.345Z,98330.09
2022-08-28T18:16:47.937Z,98328.91
2022-08-28T18:19:16.613Z,98338.28
2022-08-28T18:21:44.345Z,98331.53
2022-08-28T18:24:13.282Z,98336.06
2022-08-28T18:26:42.056Z,98343.59
2022-08-28T18:29:09.621Z,98343.25
2022-08-28T18:31:37.313Z,98341.69
2022-08-28T18:34:05.611Z,98340.59
2022-08-28T18:36:33.183Z,98338.63
2022-08-28T18:39:00.749Z,98333.53
2022-08-28T18:41:35.736Z,98343.78
2022-08-28T18:44:13.717Z,98346.00
2022-08-28T18:46:41.818Z,98337.94
2022-08-28T18:49:09.699Z,98338.25
2022-08-28T18:51:37.419Z,98332.44
2022-08-28T18:54:04.988Z,98332.88
2022-08-28T18:56:34.138Z,98330.56
2022-08-28T18:59:04.459Z,98334.84
2022-08-28T19:01:32.066Z,98332.00
2022-08-28T19:03:59.755Z,98332.88
2022-08-28T19:06:27.381Z,98334.09
2022-08-28T19:08:54.842Z,98327.59
2022-08-28T19:11:22.282Z,98322.19
2022-08-28T19:13:49.798Z,98324.94
2022-08-28T19:16:20.823Z,98338.19
2022-08-28T19:18:48.886Z,98329.69
2022-08-28T19:21:20.670Z,98325.81
2022-08-28T19:23:55.357Z,98327.91
2022-08-28T19:26:27.499Z,98330.53
2022-08-28T19:28:55.453Z,98324.38
2022-08-28T19:31:23.752Z,98324.50
2022-08-28T19:33:51.689Z,98313.69
2022-08-28T19:36:19.806Z,98327.03
2022-08-28T19:38:47.867Z,98316.88
2022-08-28T19:41:15.472Z,98312.66
2022-08-28T19:43:44.693Z,98317.41
2022-08-28T19:46:19.377Z,98318.31
2022-08-28T19:48:53.016Z,98317.88
2022-08-28T19:51:24.041Z,98316.97
2022-08-28T19:53:57.821Z,98317.41
2022-08-28T19:56:31.750Z,98313.00
2022-08-28T19:59:01.789Z,98300.31
2022-08-28T20:01:33.067Z,98301.84
2022-08-28T20:04:00.769Z,98302.78
2022-08-28T20:06:31.797Z,98298.34
2022-08-28T20:09:00.577Z,98299.94
2022-08-28T20:11:30.054Z,98292.63
2022-08-28T20:14:04.564Z,98300.38
2022-08-28T20:16:36.028Z,98295.97
2022-08-28T20:19:04.755Z,98289.13
2022-08-28T20:21:37.646Z,98281.06
2022-08-28T20:24:09.420Z,98291.19
2022-08-28T20:26:37.342Z,98283.25
2022-08-28T20:29:07.944Z,98288.78
2022-08-28T20:31:37.403Z,98279.59
2022-08-28T20:34:05.205Z,98286.75
2022-08-28T20:36:32.839Z,98291.94
2022-08-28T20:39:01.023Z,98289.03
2022-08-28T20:41:28.752Z,98286.28
2022-08-28T20:43:56.212Z,98288.03
2022-08-28T20:46:24.677Z,98298.53
2022-08-28T20:48:52.267Z,98269.28
2022-08-28T20:51:42.543Z,98292.44
2022-08-28T20:54:10.777Z,98291.66
2022-08-28T20:56:38.443Z,98291.75
2022-08-28T20:59:06.399Z,98288.00
2022-08-28T21:01:34.187Z,98280.50
2022-08-28T21:04:02.307Z,98288.00
2022-08-28T21:06:30.568Z,98276.31
2022-08-28T21:08:58.587Z,98280.63
2022-08-28T21:11:27.409Z,98286.00
2022-08-28T21:13:55.652Z,98277.19
2022-08-28T21:16:23.406Z,98282.69
2022-08-28T21:19:14.684Z,98275.72
2022-08-28T21:21:38.946Z,98264.81
2022-08-28T21:24:09.496Z,98279.16
2022-08-28T21:26:37.906Z,98268.31
2022-08-28T21:29:07.014Z,98276.94
2022-08-28T21:31:35.014Z,98266.34
2022-08-28T21:34:02.616Z,98268.00
2022-08-28T21:36:30.198Z,98272.38
2022-08-28T21:38:58.634Z,98279.81
2022-08-28T21:41:26.109Z,98259.56
2022-08-28T21:43:53.770Z,98263.84
2022-08-28T21:46:21.348Z,98265.06
2022-08-28T21:48:50.607Z,98269.38
2022-08-28T21:51:19.653Z,98266.63
2022-08-28T21:53:47.647Z,98270.25
2022-08-28T21:56:20.609Z,98269.94
2022-08-28T21:58:48.199Z,98267.13
2022-08-28T22:01:17.097Z,98266.38
2022-08-28T22:03:45.521Z,98267.13
2022-08-28T22:06:15.870Z,98267.13
2022-08-28T22:08:43.851Z,98275.81
2022-08-28T22:11:12.158Z,98267.66
2022-08-28T22:13:39.883Z,98262.25
2022-08-28T22:16:08.323Z,98260.38
2022-08-28T22:18:36.071Z,98263.88
2022-08-28T22:21:22.964Z,98266.97
2022-08-28T22:23:51.702Z,98259.16
2022-08-28T22:26:22.538Z,98268.94
2022-08-28T22:28:50.115Z,98259.69
2022-08-28T22:31:17.661Z,98260.19
2022-08-28T22:33:45.769Z,98264.06
2022-08-28T22:36:13.754Z,98260.19
2022-08-28T22:38:41.826Z,98273.19
2022-08-28T22:41:17.665Z,98262.94
2022-08-28T22:43:48.304Z,98270.34
2022-08-28T22:46:19.065Z,98269.75
2022-08-28T22:48:46.671Z,98258.06
2022-08-28T22:51:17.168Z,98274.38
2022-08-28T22:53:45.512Z,98273.38
2022-08-28T22:56:14.176Z,98262.69
2022-08-28T22:58:41.975Z,98256.50
2022-08-28T23:01:13.828Z,98271.97
2022-08-28T23:03:42.399Z,98264.00
2022-08-28T23:06:10.185Z,98261.16
2022-08-28T23:08:37.697Z,98255.22
2022-08-28T23:11:05.739Z,98252.13
2022-08-28T23:13:33.604Z,98254.88
2022-08-28T23:16:02.244Z,98257.63
2022-08-28T23:18:41.496Z,98265.00
2022-08-28T23:21:14.085Z,98254.13
2022-08-28T23:23:42.752Z,98250.25
2022-08-28T23:26:15.221Z,98259.75
2022-08-28T23:28:44.490Z,98249.72
2022-08-28T23:31:12.014Z,98247.06
2022-08-28T23:33:39.532Z,98240.88
2022-08-28T23:36:07.435Z,98247.13
2022-08-28T23:38:43.036Z,98255.91
2022-08-28T23:41:11.669Z,98253.84
2022-08-28T23:43:41.142Z,98239.75
2022-08-28T23:46:10.014Z,98245.25
2022-08-28T23:48:41.357Z,98242.19
2022-08-28T23:51:10.513Z,98253.84
2022-08-28T23:53:39.797Z,98251.94
2022-08-28T23:56:07.544Z,98251.63
2022-08-28T23:58:35.623Z,98248.09
